createdAt,value
2023-03-04T00:00:47.949Z,99868.91
2023-03-04T00:03:16.673Z,99877.28
2023-03-04T00:05:45.066Z,99877.28
2023-03-04T00:08:13.227Z,99865.59
2023-03-04T00:10:41.417Z,99867.41
2023-03-04T00:13:09.970Z,99872.84
2023-03-04T00:15:40.155Z,99871.34
2023-03-04T00:18:08.501Z,99865.91
2023-03-04T00:20:36.657Z,99877.59
2023-03-04T00:23:04.921Z,99872.69
2023-03-04T00:25:33.665Z,99870.19
2023-03-04T00:28:02.036Z,99874.81
2023-03-04T00:30:31.838Z,99872.94
2023-03-04T00:33:01.685Z,99881.84
2023-03-04T00:35:30.141Z,99882.34
2023-03-04T00:37:58.480Z,99875.06
2023-03-04T00:40:26.720Z,99856.28
2023-03-04T00:42:55.049Z,99866.81
2023-03-04T00:45:23.226Z,99867.81
2023-03-04T00:47:51.490Z,99856.59
2023-03-04T00:50:24.677Z,99854.25
2023-03-04T00:52:52.913Z,99861.50
2023-03-04T00:55:21.300Z,99861.34
2023-03-04T00:57:49.605Z,99857.03
2023-03-04T01:00:22.615Z,99859.69
2023-03-04T01:02:50.992Z,99857.03
2023-03-04T01:05:20.899Z,99856.38
2023-03-04T01:07:49.250Z,99855.22
2023-03-04T01:10:19.858Z,99855.22
2023-03-04T01:12:48.151Z,99846.66
2023-03-04T01:15:16.784Z,99858.03
2023-03-04T01:17:46.069Z,99856.53
2023-03-04T01:20:15.686Z,99854.03
2023-03-04T01:22:45.454Z,99869.84
2023-03-04T01:25:14.347Z,99852.53
2023-03-04T01:27:42.598Z,99853.03
2023-03-04T01:30:12.691Z,99854.19
2023-03-04T01:32:41.082Z,99854.47
2023-03-04T01:35:10.067Z,99848.69
2023-03-04T01:37:38.401Z,99848.22
2023-03-04T01:40:10.124Z,99848.97
2023-03-04T01:42:38.859Z,99857.88
2023-03-04T01:45:08.721Z,99876.66
2023-03-04T01:47:37.142Z,99885.53
2023-03-04T01:50:12.841Z,99878.59
2023-03-04T01:52:43.032Z,99867.25
2023-03-04T01:55:18.565Z,99861.28
2023-03-04T01:57:47.981Z,99864.75
2023-03-04T02:00:26.531Z,99883.34
2023-03-04T02:02:56.455Z,99886.97
2023-03-04T02:05:25.141Z,99850.09
2023-03-04T02:07:54.549Z,99796.56
2023-03-04T02:10:26.455Z,99883.88
2023-03-04T02:12:55.054Z,99855.56
2023-03-04T02:15:24.469Z,99862.31
2023-03-04T02:17:52.730Z,99867.56
2023-03-04T02:20:36.414Z,99869.53
2023-03-04T02:23:13.119Z,99873.66
2023-03-04T02:25:48.409Z,99868.00
2023-03-04T02:28:18.299Z,99870.16
2023-03-04T02:30:46.617Z,99853.13
2023-03-04T02:33:21.251Z,99865.78
2023-03-04T02:35:50.235Z,99871.53
2023-03-04T02:38:18.704Z,99868.69
2023-03-04T02:40:49.951Z,99872.94
2023-03-04T02:43:19.982Z,99874.34
2023-03-04T02:45:50.626Z,99865.78
2023-03-04T02:48:21.768Z,99867.69
2023-03-04T02:50:52.915Z,99851.06
2023-03-04T02:53:21.939Z,99876.03
2023-03-04T02:55:50.670Z,99880.78
2023-03-04T02:58:20.381Z,99872.53
2023-03-04T03:00:49.071Z,99869.06
2023-03-04T03:03:17.333Z,99879.72
2023-03-04T03:05:45.980Z,99880.84
2023-03-04T03:08:14.447Z,99867.34
2023-03-04T03:10:44.543Z,99870.81
2023-03-04T03:13:12.713Z,99866.50
2023-03-04T03:15:43.738Z,99875.53
2023-03-04T03:18:12.122Z,99875.97
2023-03-04T03:20:40.336Z,99874.47
2023-03-04T03:23:09.246Z,99863.28
2023-03-04T03:25:37.619Z,99874.94
2023-03-04T03:28:06.257Z,99873.72
2023-03-04T03:30:34.546Z,99876.50
2023-03-04T03:33:04.757Z,99867.41
2023-03-04T03:35:33.318Z,99882.53
2023-03-04T03:38:01.624Z,99866.19
2023-03-04T03:40:29.941Z,99889.19
2023-03-04T03:42:58.300Z,99870.94
2023-03-04T03:45:26.752Z,99880.94
2023-03-04T03:47:55.078Z,99869.72
2023-03-04T03:50:24.784Z,99881.38
2023-03-04T03:52:53.050Z,99879.03
2023-03-04T03:55:21.368Z,99883.31
2023-03-04T03:57:49.686Z,99869.63
2023-03-04T04:00:18.935Z,99870.63
2023-03-04T04:02:47.307Z,99862.22
2023-03-04T04:05:16.351Z,99859.88
2023-03-04T04:07:46.197Z,99864.44
2023-03-04T04:10:15.127Z,99871.50
2023-03-04T04:12:44.699Z,99861.13
2023-03-04T04:15:14.102Z,99865.69
2023-03-04T04:17:42.400Z,99876.53
2023-03-04T04:20:12.176Z,99883.75
2023-03-04T04:22:40.400Z,99869.38
2023-03-04T04:25:10.902Z,99877.09
2023-03-04T04:27:39.203Z,99883.47
2023-03-04T04:30:08.912Z,99879.88
2023-03-04T04:32:37.398Z,99879.06
2023-03-04T04:35:06.296Z,99875.75
2023-03-04T04:37:34.561Z,99877.72
2023-03-04T04:40:02.992Z,99888.38
2023-03-04T04:42:33.682Z,99872.19
2023-03-04T04:45:02.116Z,99870.53
2023-03-04T04:47:30.372Z,99871.66
2023-03-04T04:50:00.178Z,99877.66
2023-03-04T04:52:28.587Z,99847.63
2023-03-04T04:54:56.867Z,99869.75
2023-03-04T04:57:25.256Z,99870.06
2023-03-04T04:59:54.852Z,99872.00
2023-03-04T05:02:23.132Z,99876.41
2023-03-04T05:04:51.307Z,99860.78
2023-03-04T05:07:19.728Z,99888.34
2023-03-04T05:09:48.027Z,99874.81
2023-03-04T05:12:16.654Z,99878.53
2023-03-04T05:14:46.665Z,99869.84
2023-03-04T05:17:16.484Z,99860.47
2023-03-04T05:19:45.530Z,99872.91
2023-03-04T05:22:14.062Z,99869.59
2023-03-04T05:24:42.252Z,99868.78
2023-03-04T05:27:10.541Z,99863.78
2023-03-04T05:29:38.985Z,99870.47
2023-03-04T05:32:07.300Z,99866.19
2023-03-04T05:34:36.999Z,99882.59
2023-03-04T05:37:05.602Z,99876.13
2023-03-04T05:39:34.083Z,99875.44
2023-03-04T05:42:02.391Z,99879.19
2023-03-04T05:44:30.620Z,99875.03
2023-03-04T05:46:58.940Z,99885.00
2023-03-04T05:49:27.236Z,99871.88
2023-03-04T05:51:57.040Z,99886.81
2023-03-04T05:54:25.398Z,99890.69
2023-03-04T05:56:54.839Z,99894.13
2023-03-04T05:59:23.672Z,99902.00
2023-03-04T06:01:52.356Z,99889.84
2023-03-04T06:04:20.971Z,99933.78
2023-03-04T06:06:49.588Z,99914.59
2023-03-04T06:09:21.198Z,99914.59
2023-03-04T06:11:50.102Z,99924.13
2023-03-04T06:14:20.027Z,99924.38
2023-03-04T06:16:49.600Z,99933.25
2023-03-04T06:19:17.972Z,99932.56
2023-03-04T06:21:46.883Z,99933.41
2023-03-04T06:24:15.289Z,99936.56
2023-03-04T06:26:45.204Z,99944.28
2023-03-04T06:29:14.330Z,99958.94
2023-03-04T06:31:43.127Z,99946.38
2023-03-04T06:34:11.673Z,99947.91
2023-03-04T06:36:40.425Z,99961.84
2023-03-04T06:39:09.705Z,99943.16
2023-03-04T06:41:40.146Z,99965.56
2023-03-04T06:44:09.829Z,99957.13
2023-03-04T06:46:38.318Z,99961.69
2023-03-04T06:49:06.576Z,99917.56
2023-03-04T06:51:34.798Z,99966.38
2023-03-04T06:54:03.087Z,99966.91
2023-03-04T06:56:31.402Z,99972.72
2023-03-04T06:58:59.748Z,99965.53
2023-03-04T07:01:30.461Z,99977.69
2023-03-04T07:03:59.138Z,99961.25
2023-03-04T07:06:29.380Z,99980.16
2023-03-04T07:08:58.424Z,99983.22
2023-03-04T07:11:27.496Z,99985.56
2023-03-04T07:13:57.139Z,99984.88
2023-03-04T07:16:26.016Z,99997.41
2023-03-04T07:18:55.741Z,99977.41
2023-03-04T07:21:24.283Z,99994.00
2023-03-04T07:23:52.893Z,99990.53
2023-03-04T07:26:23.731Z,99992.84
2023-03-04T07:28:54.600Z,99999.63
2023-03-04T07:31:27.931Z,99999.91
2023-03-04T07:33:59.128Z,99981.66
2023-03-04T07:36:27.911Z,99990.88
2023-03-04T07:38:56.826Z,99983.13
2023-03-04T07:41:27.712Z,99996.13
2023-03-04T07:43:57.873Z,100002.09
2023-03-04T07:46:26.837Z,99994.03
2023-03-04T07:48:58.243Z,100006.06
2023-03-04T07:51:28.471Z,100002.72
2023-03-04T07:53:59.888Z,99967.72
2023-03-04T07:56:29.677Z,100007.03
2023-03-04T07:58:58.361Z,100002.72
2023-03-04T08:01:33.528Z,100017.22
2023-03-04T08:04:03.757Z,100012.13
2023-03-04T08:06:32.607Z,100013.34
2023-03-04T08:09:02.365Z,100025.53
2023-03-04T08:11:33.868Z,100027.59
2023-03-04T08:14:05.298Z,100018.41
2023-03-04T08:16:34.279Z,100025.88
2023-03-04T08:19:05.246Z,100035.81
2023-03-04T08:21:34.354Z,100032.66
2023-03-04T08:24:08.734Z,100035.97
2023-03-04T08:26:41.452Z,100025.28
2023-03-04T08:29:11.171Z,100029.97
2023-03-04T08:31:39.614Z,100031.22
2023-03-04T08:34:10.670Z,100039.63
2023-03-04T08:36:38.907Z,100034.63
2023-03-04T08:39:07.477Z,100045.69
2023-03-04T08:41:39.151Z,100037.63
2023-03-04T08:44:08.446Z,100032.47
2023-03-04T08:46:37.034Z,100047.91
2023-03-04T08:49:05.519Z,100043.88
2023-03-04T08:51:36.188Z,100036.97
2023-03-04T08:54:04.479Z,100044.69
2023-03-04T08:56:32.788Z,100040.13
2023-03-04T08:59:04.281Z,100031.50
2023-03-04T09:01:32.539Z,100049.25
2023-03-04T09:04:00.763Z,100022.78
2023-03-04T09:06:29.041Z,100046.31
2023-03-04T09:08:58.861Z,100049.78
2023-03-04T09:11:27.657Z,100043.78
2023-03-04T09:13:57.796Z,100038.44
2023-03-04T09:16:26.074Z,100042.16
2023-03-04T09:18:54.307Z,100034.78
2023-03-04T09:21:22.541Z,100023.09
2023-03-04T09:23:51.041Z,100033.59
2023-03-04T09:26:23.418Z,100045.47
2023-03-04T09:28:52.979Z,100046.81
2023-03-04T09:31:22.088Z,100053.47
2023-03-04T09:33:51.075Z,100055.47
2023-03-04T09:36:19.541Z,100057.66
2023-03-04T09:38:47.846Z,100040.50
2023-03-04T09:41:20.025Z,100058.78
2023-03-04T09:43:50.882Z,100053.00
2023-03-04T09:46:28.256Z,100062.34
2023-03-04T09:48:57.698Z,100056.09
2023-03-04T09:51:42.469Z,100042.97
2023-03-04T09:54:16.484Z,100054.75
2023-03-04T09:56:44.819Z,100060.38
2023-03-04T09:59:31.398Z,100043.88
2023-03-04T10:02:02.519Z,100045.31
2023-03-04T10:04:38.277Z,100044.50
2023-03-04T10:07:10.973Z,100034.44
2023-03-04T10:09:47.280Z,100034.78
2023-03-04T10:12:21.547Z,100058.19
2023-03-04T10:14:57.354Z,100035.56
2023-03-04T10:17:33.897Z,100042.75
2023-03-04T10:20:06.412Z,100019.69
2023-03-04T10:22:38.079Z,100021.56
2023-03-04T10:25:25.459Z,100034.13
2023-03-04T10:27:56.856Z,100025.75
2023-03-04T10:30:41.900Z,100034.19
2023-03-04T10:33:21.766Z,100019.19
2023-03-04T10:35:54.666Z,100025.84
2023-03-04T10:38:24.557Z,100019.13
2023-03-04T10:40:52.970Z,100021.78
2023-03-04T10:43:22.855Z,100026.91
2023-03-04T10:45:58.110Z,100020.66
2023-03-04T10:48:28.505Z,100016.06
2023-03-04T10:51:13.848Z,100013.78
2023-03-04T10:53:44.469Z,100023.41
2023-03-04T10:56:32.658Z,100021.75
2023-03-04T10:59:31.975Z,100011.50
2023-03-04T11:02:03.411Z,100005.03
2023-03-04T11:04:36.098Z,100006.91
2023-03-04T11:07:11.062Z,100009.06
2023-03-04T11:09:41.116Z,100004.50
2023-03-04T11:12:13.772Z,100001.53
2023-03-04T11:14:46.374Z,100011.28
2023-03-04T11:17:23.602Z,100010.09
2023-03-04T11:19:57.402Z,99997.13
2023-03-04T11:22:28.962Z,100012.47
2023-03-04T11:25:01.141Z,99993.34
2023-03-04T11:27:39.869Z,99991.38
2023-03-04T11:30:25.073Z,100001.91
2023-03-04T11:33:00.013Z,99991.69
2023-03-04T11:35:38.312Z,100007.81
2023-03-04T11:38:16.477Z,100009.47
2023-03-04T11:40:47.004Z,100004.50
2023-03-04T11:43:19.182Z,99993.19
2023-03-04T11:46:13.382Z,99997.78
2023-03-04T11:48:53.245Z,99984.91
2023-03-04T11:51:30.028Z,100002.59
2023-03-04T11:54:13.394Z,99981.78
2023-03-04T11:56:45.380Z,99988.56
2023-03-04T11:59:33.018Z,100010.38
2023-03-04T12:02:14.420Z,99991.22
2023-03-04T12:05:15.398Z,99986.25
2023-03-04T12:08:18.417Z,99983.81
2023-03-04T12:10:57.294Z,99982.16
2023-03-04T12:13:48.263Z,99986.78
2023-03-04T12:16:27.344Z,99981.69
2023-03-04T12:19:10.725Z,99993.06
2023-03-04T12:22:06.492Z,99978.53
2023-03-04T12:24:51.773Z,99985.47
2023-03-04T12:27:29.372Z,99980.19
2023-03-04T12:30:05.691Z,99987.75
2023-03-04T12:32:44.217Z,99972.06
2023-03-04T12:35:36.747Z,99981.19
2023-03-04T12:38:41.222Z,99995.22
2023-03-04T12:41:27.025Z,99974.59
2023-03-04T12:44:05.941Z,99977.06
2023-03-04T12:46:46.480Z,99980.84
2023-03-04T12:49:30.453Z,99973.59
2023-03-04T12:52:09.856Z,99974.09
2023-03-04T12:54:42.474Z,99977.56
2023-03-04T12:57:15.403Z,99967.66
2023-03-04T12:59:51.977Z,99980.34
2023-03-04T13:02:35.147Z,99972.63
2023-03-04T13:05:17.832Z,99974.59
2023-03-04T13:07:56.792Z,99966.66
2023-03-04T13:10:25.888Z,99972.63
2023-03-04T13:12:56.938Z,99968.81
2023-03-04T13:15:35.864Z,99975.25
2023-03-04T13:18:29.243Z,99960.22
2023-03-04T13:21:09.443Z,99958.59
2023-03-04T13:23:37.710Z,99961.84
2023-03-04T13:26:21.646Z,99969.81
2023-03-04T13:29:10.204Z,99953.81
2023-03-04T13:31:59.859Z,99960.91
2023-03-04T13:34:54.697Z,99959.25
2023-03-04T13:37:35.179Z,99951.47
2023-03-04T13:40:32.529Z,99963.19
2023-03-04T13:43:29.430Z,99952.78
2023-03-04T13:45:59.525Z,99950.81
2023-03-04T13:48:36.728Z,99964.34
2023-03-04T13:51:05.472Z,99952.13
2023-03-04T13:53:50.027Z,99974.91
2023-03-04T13:56:31.623Z,99951.47
2023-03-04T13:59:19.912Z,99942.38
2023-03-04T14:01:57.578Z,99942.19
2023-03-04T14:04:31.311Z,99969.94
2023-03-04T14:07:01.998Z,99939.75
2023-03-04T14:09:32.210Z,99936.94
2023-03-04T14:12:05.420Z,99925.41
2023-03-04T14:14:48.849Z,99941.91
2023-03-04T14:17:22.352Z,99930.34
2023-03-04T14:19:53.834Z,99932.66
2023-03-04T14:22:25.684Z,99923.56
2023-03-04T14:25:03.532Z,99945.38
2023-03-04T14:27:35.449Z,99929.84
2023-03-04T14:30:07.051Z,99933.97
2023-03-04T14:32:37.020Z,99933.63
2023-03-04T14:35:09.379Z,99921.75
2023-03-04T14:37:45.019Z,99924.88
2023-03-04T14:40:24.231Z,99912.81
2023-03-04T14:42:57.495Z,99920.91
2023-03-04T14:45:27.057Z,99913.34
2023-03-04T14:48:01.838Z,99911.69
2023-03-04T14:50:30.190Z,99907.22
2023-03-04T14:53:16.725Z,99912.66
2023-03-04T14:55:58.241Z,99903.41
2023-03-04T14:58:28.322Z,99908.53
2023-03-04T15:01:08.610Z,99900.78
2023-03-04T15:03:38.860Z,99890.03
2023-03-04T15:06:19.348Z,99907.03
2023-03-04T15:08:48.599Z,99894.16
2023-03-04T15:11:26.605Z,99897.94
2023-03-04T15:13:57.488Z,99902.75
2023-03-04T15:16:28.914Z,99886.72
2023-03-04T15:19:06.005Z,99881.94
2023-03-04T15:21:40.315Z,99888.88
2023-03-04T15:24:11.804Z,99882.25
2023-03-04T15:26:42.248Z,99899.91
2023-03-04T15:29:16.123Z,99892.16
2023-03-04T15:31:45.173Z,99883.03
2023-03-04T15:34:16.696Z,99875.63
2023-03-04T15:36:47.213Z,99876.94
2023-03-04T15:39:17.566Z,99872.94
2023-03-04T15:41:48.544Z,99879.41
2023-03-04T15:44:17.174Z,99875.59
2023-03-04T15:46:47.115Z,99881.16
2023-03-04T15:49:16.957Z,99876.56
2023-03-04T15:51:45.522Z,99877.69
2023-03-04T15:54:15.214Z,99874.38
2023-03-04T15:56:44.171Z,99879.28
2023-03-04T15:59:14.965Z,99877.81
2023-03-04T16:01:43.550Z,99878.44
2023-03-04T16:04:17.516Z,99877.94
2023-03-04T16:06:47.069Z,99881.88
2023-03-04T16:09:19.814Z,99878.22
2023-03-04T16:11:50.109Z,99881.66
2023-03-04T16:14:18.901Z,99884.75
2023-03-04T16:16:48.135Z,99880.25
2023-03-04T16:19:17.881Z,99889.31
2023-03-04T16:21:46.449Z,99883.66
2023-03-04T16:24:19.119Z,99887.56
2023-03-04T16:26:48.056Z,99887.25
2023-03-04T16:29:17.333Z,99887.69
2023-03-04T16:31:45.815Z,99879.13
2023-03-04T16:34:15.023Z,99881.25
2023-03-04T16:36:44.891Z,99880.88
2023-03-04T16:39:20.590Z,99872.59
2023-03-04T16:41:51.464Z,99874.88
2023-03-04T16:44:20.108Z,99877.97
2023-03-04T16:46:48.382Z,99885.34
2023-03-04T16:49:16.712Z,99879.56
2023-03-04T16:51:48.517Z,99874.47
2023-03-04T16:54:19.927Z,99885.44
2023-03-04T16:56:48.113Z,99882.94
2023-03-04T16:59:17.932Z,99882.41
2023-03-04T17:01:46.596Z,99873.34
2023-03-04T17:04:15.248Z,99872.28
2023-03-04T17:06:43.630Z,99866.38
2023-03-04T17:09:14.736Z,99870.28
2023-03-04T17:11:44.755Z,99871.00
2023-03-04T17:14:13.486Z,99866.06
2023-03-04T17:16:41.904Z,99860.28
2023-03-04T17:19:10.507Z,99856.00
2023-03-04T17:21:38.818Z,99849.69
2023-03-04T17:24:11.083Z,99858.41
2023-03-04T17:26:42.755Z,99849.16
2023-03-04T17:29:14.710Z,99847.09
2023-03-04T17:31:42.979Z,99835.41
2023-03-04T17:34:11.683Z,99841.16
2023-03-04T17:36:39.855Z,99844.94
2023-03-04T17:39:08.917Z,99833.88
2023-03-04T17:41:38.115Z,99829.75
2023-03-04T17:44:07.753Z,99833.34
2023-03-04T17:46:36.517Z,99836.97
2023-03-04T17:49:04.802Z,99835.44
2023-03-04T17:51:35.581Z,99829.69
2023-03-04T17:54:05.698Z,99830.66
2023-03-04T17:56:34.667Z,99828.31
2023-03-04T17:59:05.914Z,99824.84
2023-03-04T18:01:35.673Z,99824.19
2023-03-04T18:04:04.689Z,99821.69
2023-03-04T18:06:33.069Z,99816.56
2023-03-04T18:09:01.838Z,99823.81
2023-03-04T18:11:33.164Z,99814.28
2023-03-04T18:14:01.571Z,99814.41
2023-03-04T18:16:30.932Z,99807.50
2023-03-04T18:19:02.038Z,99810.28
2023-03-04T18:21:31.356Z,99809.59
2023-03-04T18:23:59.905Z,99801.84
2023-03-04T18:26:29.736Z,99807.25
2023-03-04T18:28:58.143Z,99805.59
2023-03-04T18:31:44.679Z,99799.69
2023-03-04T18:34:14.500Z,99805.09
2023-03-04T18:36:42.708Z,99801.63
2023-03-04T18:39:10.883Z,99801.63
2023-03-04T18:41:39.106Z,99792.09
2023-03-04T18:44:09.856Z,99796.53
2023-03-04T18:46:49.960Z,99794.03
2023-03-04T18:49:21.350Z,99787.25
2023-03-04T18:51:49.630Z,99777.88
2023-03-04T18:54:18.471Z,99776.53
2023-03-04T18:56:50.129Z,99786.22
2023-03-04T18:59:23.079Z,99783.88
2023-03-04T19:01:53.804Z,99780.03
2023-03-04T19:04:27.784Z,99783.81
2023-03-04T19:06:56.404Z,99775.09
2023-03-04T19:09:24.829Z,99772.06
2023-03-04T19:11:53.276Z,99767.09
2023-03-04T19:14:21.644Z,99768.91
2023-03-04T19:17:07.641Z,99763.09
2023-03-04T19:19:37.653Z,99755.69
2023-03-04T19:22:07.052Z,99761.75
2023-03-04T19:24:35.700Z,99753.19
2023-03-04T19:27:05.511Z,99752.50
2023-03-04T19:29:33.867Z,99761.22
2023-03-04T19:32:02.265Z,99754.31
2023-03-04T19:34:31.818Z,99749.06
2023-03-04T19:37:03.130Z,99747.69
2023-03-04T19:39:31.450Z,99744.56
2023-03-04T19:41:59.730Z,99738.63
2023-03-04T19:44:28.008Z,99744.16
2023-03-04T19:46:56.385Z,99743.31
2023-03-04T19:49:24.611Z,99739.03
2023-03-04T19:51:53.453Z,99739.19
2023-03-04T19:54:23.318Z,99738.66
2023-03-04T19:56:55.170Z,99740.47
2023-03-04T19:59:23.765Z,99736.47
2023-03-04T20:01:52.206Z,99733.69
2023-03-04T20:04:23.783Z,99733.84
2023-03-04T20:06:52.845Z,99727.91
2023-03-04T20:09:22.841Z,99724.75
2023-03-04T20:11:58.378Z,99722.44
2023-03-04T20:14:27.740Z,99724.38
2023-03-04T20:17:00.885Z,99720.09
2023-03-04T20:19:29.449Z,99722.72
2023-03-04T20:21:57.924Z,99721.88
2023-03-04T20:24:28.077Z,99724.66
2023-03-04T20:26:56.820Z,99719.69
2023-03-04T20:29:26.931Z,99717.75
2023-03-04T20:31:55.418Z,99730.03
2023-03-04T20:34:27.153Z,99722.31
2023-03-04T20:36:55.456Z,99718.03
2023-03-04T20:39:29.495Z,99718.16
2023-03-04T20:42:00.095Z,99712.09
2023-03-04T20:44:28.869Z,99718.16
2023-03-04T20:46:57.494Z,99725.22
2023-03-04T20:49:27.828Z,99709.31
2023-03-04T20:52:00.379Z,99706.84
2023-03-04T20:54:28.726Z,99710.28
2023-03-04T20:56:57.034Z,99707.66
2023-03-04T20:59:27.685Z,99709.47
2023-03-04T21:01:56.626Z,99708.50
2023-03-04T21:04:25.149Z,99711.13
2023-03-04T21:06:54.146Z,99705.03
2023-03-04T21:09:23.521Z,99695.38
2023-03-04T21:11:53.997Z,99705.88
2023-03-04T21:14:24.363Z,99698.97
2023-03-04T21:16:56.786Z,99702.13
2023-03-04T21:19:27.498Z,99697.03
2023-03-04T21:21:58.113Z,99694.41
2023-03-04T21:24:31.405Z,99699.66
2023-03-04T21:27:01.631Z,99689.44
2023-03-04T21:29:29.862Z,99694.84
2023-03-04T21:32:16.851Z,99687.13
2023-03-04T21:34:52.387Z,99692.38
2023-03-04T21:37:20.971Z,99687.41
2023-03-04T21:39:49.773Z,99682.31
2023-03-04T21:42:18.721Z,99686.03
2023-03-04T21:44:51.482Z,99681.91
2023-03-04T21:47:22.917Z,99690.75
2023-03-04T21:49:52.106Z,99685.50
2023-03-04T21:52:21.569Z,99671.72
2023-03-04T21:54:50.218Z,99682.22
2023-03-04T21:57:19.173Z,99684.00
2023-03-04T21:59:47.472Z,99680.69
2023-03-04T22:02:17.082Z,99672.97
2023-03-04T22:04:47.026Z,99673.94
2023-03-04T22:07:16.065Z,99676.56
2023-03-04T22:09:44.337Z,99672.97
2023-03-04T22:12:14.358Z,99672.28
2023-03-04T22:14:44.220Z,99672.28
2023-03-04T22:17:12.753Z,99670.63
2023-03-04T22:19:41.070Z,99667.03
2023-03-04T22:22:14.194Z,99667.03
2023-03-04T22:24:42.453Z,99660.13
2023-03-04T22:27:10.732Z,99663.44
2023-03-04T22:29:39.087Z,99656.41
2023-03-04T22:32:07.903Z,99651.97
2023-03-04T22:34:36.250Z,99648.53
2023-03-04T22:37:04.649Z,99648.25
2023-03-04T22:39:34.672Z,99646.97
2023-03-04T22:42:03.145Z,99644.34
2023-03-04T22:44:31.565Z,99647.38
2023-03-04T22:46:59.891Z,99641.16
2023-03-04T22:49:28.265Z,99636.28
2023-03-04T22:51:56.693Z,99637.78
2023-03-04T22:54:24.978Z,99640.94
2023-03-04T22:56:55.045Z,99624.38
2023-03-04T22:59:23.413Z,99636.22
2023-03-04T23:01:53.270Z,99625.72
2023-03-04T23:04:21.898Z,99628.22
2023-03-04T23:06:50.338Z,99629.03
2023-03-04T23:09:18.666Z,99630.69
2023-03-04T23:11:47.140Z,99615.09
2023-03-04T23:14:16.781Z,99622.97
2023-03-04T23:16:45.514Z,99624.91
2023-03-04T23:19:15.484Z,99622.28
2023-03-04T23:21:44.641Z,99623.09
2023-03-04T23:24:14.751Z,99625.06
2023-03-04T23:26:44.262Z,99625.34
2023-03-04T23:29:17.217Z,99616.13
2023-03-04T23:31:46.079Z,99611.16
2023-03-04T23:34:15.325Z,99621.94
2023-03-04T23:36:43.662Z,99611.06
2023-03-04T23:39:14.197Z,99616.31
2023-03-04T23:41:42.868Z,99613.03
2023-03-04T23:44:12.470Z,99616.75
2023-03-04T23:46:42.300Z,99610.97
2023-03-04T23:49:14.504Z,99612.91
2023-03-04T23:51:44.420Z,99611.41
2023-03-04T23:54:13.109Z,99604.50
2023-03-04T23:56:41.448Z,99607.28
2023-03-04T23:59:09.831Z,99620.41
